createdAt,value
2023-03-13T00:00:15.581Z,96.30
2023-03-13T00:01:25.014Z,96.30
2023-03-13T00:02:28.029Z,96.30
2023-03-13T00:03:31.476Z,96.30
2023-03-13T00:04:34.972Z,96.30
2023-03-13T00:05:37.722Z,96.30
2023-03-13T00:06:42.489Z,96.30
2023-03-13T00:07:44.983Z,96.30
2023-03-13T00:08:48.663Z,96.30
2023-03-13T00:09:51.078Z,96.30
2023-03-13T00:10:55.827Z,96.30
2023-03-13T00:11:58.333Z,96.30
2023-03-13T00:13:01.721Z,96.30
2023-03-13T00:14:06.814Z,96.30
2023-03-13T00:15:10.656Z,96.30
2023-03-13T00:16:16.368Z,96.30
2023-03-13T00:17:18.901Z,96.30
2023-03-13T00:18:22.386Z,96.30
2023-03-13T00:19:25.823Z,96.30
2023-03-13T00:20:28.347Z,96.30
2023-03-13T00:21:32.592Z,96.30
2023-03-13T00:22:34.984Z,96.30
2023-03-13T00:23:39.535Z,96.30
2023-03-13T00:24:42.294Z,96.30
2023-03-13T00:25:45.838Z,96.30
2023-03-13T00:26:49.885Z,96.30
2023-03-13T00:27:53.349Z,96.30
2023-03-13T00:28:56.204Z,96.30
2023-03-13T00:29:59.687Z,96.30
2023-03-13T00:31:04.291Z,96.30
2023-03-13T00:32:08.127Z,96.30
2023-03-13T00:33:10.566Z,96.30
2023-03-13T00:34:14.050Z,96.30
2023-03-13T00:35:17.223Z,96.30
2023-03-13T00:36:22.672Z,96.30
2023-03-13T00:37:25.224Z,96.30
2023-03-13T00:38:30.614Z,96.30
2023-03-13T00:39:33.394Z,96.30
2023-03-13T00:40:38.777Z,96.30
2023-03-13T00:41:41.230Z,96.30
2023-03-13T00:42:46.188Z,96.30
2023-03-13T00:43:50.318Z,96.30
2023-03-13T00:44:53.738Z,96.30
2023-03-13T00:45:56.575Z,96.30
2023-03-13T00:47:00.274Z,96.30
2023-03-13T00:48:02.662Z,96.30
2023-03-13T00:49:06.894Z,96.30
2023-03-13T00:50:11.997Z,96.30
2023-03-13T00:51:16.083Z,96.30
2023-03-13T00:52:19.511Z,96.30
2023-03-13T00:53:22.059Z,96.30
2023-03-13T00:54:25.588Z,96.30
2023-03-13T00:55:28.289Z,96.30
2023-03-13T00:56:31.805Z,96.30
2023-03-13T00:57:37.453Z,96.30
2023-03-13T00:58:45.184Z,96.30
2023-03-13T00:59:48.627Z,96.30
2023-03-13T01:00:51.826Z,96.30
2023-03-13T01:01:55.519Z,96.30
2023-03-13T01:02:57.949Z,96.30
2023-03-13T01:04:08.060Z,96.30
2023-03-13T01:05:11.011Z,96.30
2023-03-13T01:06:17.287Z,96.30
2023-03-13T01:07:19.667Z,96.30
2023-03-13T01:08:23.159Z,96.30
2023-03-13T01:09:26.631Z,96.30
2023-03-13T01:10:29.047Z,96.30
2023-03-13T01:11:35.890Z,96.30
2023-03-13T01:12:38.236Z,96.30
2023-03-13T01:13:43.682Z,96.30
2023-03-13T01:14:46.040Z,96.30
2023-03-13T01:15:49.453Z,96.30
2023-03-13T01:16:52.049Z,96.30
2023-03-13T01:17:55.680Z,96.30
2023-03-13T01:19:02.026Z,96.30
2023-03-13T01:20:07.923Z,96.30
2023-03-13T01:21:13.203Z,96.30
2023-03-13T01:22:17.165Z,96.30
2023-03-13T01:23:19.826Z,96.30
2023-03-13T01:24:24.696Z,96.30
2023-03-13T01:25:27.255Z,96.30
2023-03-13T01:26:30.675Z,96.30
2023-03-13T01:27:33.138Z,96.30
2023-03-13T01:28:37.488Z,96.30
2023-03-13T01:29:41.382Z,96.30
2023-03-13T01:30:44.930Z,96.30
2023-03-13T01:31:47.327Z,96.30
2023-03-13T01:32:50.761Z,96.30
2023-03-13T01:33:58.734Z,96.30
2023-03-13T01:35:01.648Z,96.30
2023-03-13T01:36:06.071Z,96.30
2023-03-13T01:37:09.498Z,96.30
2023-03-13T01:38:12.917Z,96.30
2023-03-13T01:39:16.487Z,96.30
2023-03-13T01:40:19.437Z,96.30
2023-03-13T01:41:24.457Z,96.30
2023-03-13T01:42:26.993Z,96.30
2023-03-13T01:43:32.392Z,96.30
2023-03-13T01:44:53.209Z,96.30
2023-03-13T01:46:04.755Z,96.30
2023-03-13T01:47:15.764Z,96.30
2023-03-13T01:48:57.224Z,96.30
2023-03-13T01:50:00.423Z,96.30
2023-03-13T01:51:24.365Z,96.30
2023-03-13T01:52:31.283Z,96.30
2023-03-13T01:53:55.164Z,96.30
2023-03-13T01:55:05.563Z,96.30
2023-03-13T01:56:15.925Z,96.30
2023-03-13T01:57:24.856Z,96.30
2023-03-13T01:58:30.560Z,96.30
2023-03-13T01:59:41.678Z,96.30
2023-03-13T02:00:48.023Z,96.30
2023-03-13T02:01:53.729Z,96.30
2023-03-13T02:03:02.356Z,96.30
2023-03-13T02:04:06.218Z,96.30
2023-03-13T02:05:10.465Z,96.30
2023-03-13T02:06:13.493Z,96.30
2023-03-13T02:07:23.393Z,96.30
2023-03-13T02:08:32.125Z,96.30
2023-03-13T02:09:42.082Z,96.30
2023-03-13T02:10:51.291Z,96.30
2023-03-13T02:12:02.108Z,96.30
2023-03-13T02:13:04.512Z,96.30
2023-03-13T02:14:08.501Z,96.30
2023-03-13T02:15:15.671Z,96.30
2023-03-13T02:16:21.262Z,96.30
2023-03-13T02:17:25.203Z,96.30
2023-03-13T02:18:29.186Z,96.30
2023-03-13T02:19:42.839Z,96.30
2023-03-13T02:20:45.328Z,96.30
2023-03-13T02:21:56.445Z,96.30
2023-03-13T02:23:06.764Z,96.30
2023-03-13T02:24:21.334Z,96.30
2023-03-13T02:25:42.052Z,96.30
2023-03-13T02:26:45.697Z,96.30
2023-03-13T02:27:50.817Z,96.30
2023-03-13T02:28:54.488Z,96.30
2023-03-13T02:29:57.791Z,96.30
2023-03-13T02:31:02.581Z,96.30
2023-03-13T02:32:08.324Z,96.30
2023-03-13T02:33:11.727Z,96.30
2023-03-13T02:34:18.444Z,96.30
2023-03-13T02:35:23.491Z,96.30
2023-03-13T02:36:31.637Z,96.30
2023-03-13T02:37:34.489Z,96.30
2023-03-13T02:38:46.233Z,96.30
2023-03-13T02:39:51.731Z,96.30
2023-03-13T02:40:59.117Z,96.30
2023-03-13T02:42:03.615Z,96.30
2023-03-13T02:43:13.454Z,96.30
2023-03-13T02:44:16.742Z,96.30
2023-03-13T02:45:20.452Z,96.30
2023-03-13T02:46:23.999Z,96.30
2023-03-13T02:47:30.192Z,96.30
2023-03-13T02:48:35.142Z,96.30
2023-03-13T02:49:39.041Z,96.30
2023-03-13T02:50:41.907Z,96.30
2023-03-13T02:51:49.612Z,96.30
2023-03-13T02:52:58.128Z,96.30
2023-03-13T02:54:06.142Z,96.30
2023-03-13T02:55:14.406Z,96.30
2023-03-13T02:56:22.777Z,96.30
2023-03-13T02:57:25.390Z,96.30
2023-03-13T02:58:31.690Z,96.30
2023-03-13T02:59:35.984Z,96.30
2023-03-13T03:00:39.405Z,96.30
2023-03-13T03:01:41.852Z,96.30
2023-03-13T03:02:45.998Z,96.30
2023-03-13T03:03:49.815Z,96.30
2023-03-13T03:04:53.281Z,96.30
2023-03-13T03:05:55.690Z,96.30
2023-03-13T03:06:59.350Z,96.30
2023-03-13T03:08:01.662Z,96.30
2023-03-13T03:09:06.789Z,96.30
2023-03-13T03:10:12.298Z,96.30
2023-03-13T03:11:18.753Z,96.30
2023-03-13T03:12:25.611Z,96.30
2023-03-13T03:13:29.615Z,96.30
2023-03-13T03:14:31.974Z,96.30
2023-03-13T03:15:35.369Z,96.30
2023-03-13T03:16:39.467Z,96.30
2023-03-13T03:17:42.963Z,96.30
2023-03-13T03:18:45.751Z,96.30
2023-03-13T03:19:49.138Z,96.30
2023-03-13T03:20:51.743Z,96.30
2023-03-13T03:21:55.784Z,96.30
2023-03-13T03:22:58.212Z,96.30
2023-03-13T03:24:03.790Z,96.30
2023-03-13T03:25:07.338Z,96.30
2023-03-13T03:26:11.042Z,96.30
2023-03-13T03:27:16.098Z,96.30
2023-03-13T03:28:24.811Z,96.30
2023-03-13T03:29:27.939Z,96.30
2023-03-13T03:30:32.682Z,96.30
2023-03-13T03:31:35.190Z,96.30
2023-03-13T03:32:38.711Z,96.30
2023-03-13T03:33:42.619Z,96.30
2023-03-13T03:34:48.295Z,96.30
2023-03-13T03:35:51.467Z,96.30
2023-03-13T03:36:54.972Z,96.30
2023-03-13T03:37:57.336Z,96.30
2023-03-13T03:39:01.626Z,96.30
2023-03-13T03:40:05.811Z,96.30
2023-03-13T03:41:10.371Z,96.30
2023-03-13T03:42:12.752Z,96.30
2023-03-13T03:43:17.553Z,96.30
2023-03-13T03:44:19.924Z,96.30
2023-03-13T03:45:29.965Z,96.30
2023-03-13T03:46:33.399Z,96.30
2023-03-13T03:47:36.932Z,96.30
2023-03-13T03:48:39.712Z,96.30
2023-03-13T03:49:45.099Z,96.30
2023-03-13T03:50:48.919Z,96.30
2023-03-13T03:51:53.547Z,96.30
2023-03-13T03:53:02.006Z,96.30
2023-03-13T03:54:05.658Z,96.30
2023-03-13T03:55:10.187Z,96.30
2023-03-13T03:56:14.379Z,96.30
2023-03-13T03:57:22.001Z,96.30
2023-03-13T03:58:26.883Z,96.30
2023-03-13T03:59:52.840Z,96.30
2023-03-13T04:00:57.972Z,96.30
2023-03-13T04:02:01.523Z,96.30
2023-03-13T04:03:05.418Z,96.30
2023-03-13T04:04:08.925Z,96.30
2023-03-13T04:05:11.730Z,96.30
2023-03-13T04:06:16.608Z,96.30
2023-03-13T04:07:19.557Z,96.30
2023-03-13T04:08:24.051Z,96.30
2023-03-13T04:09:26.396Z,96.30
2023-03-13T04:10:30.046Z,96.30
2023-03-13T04:11:32.750Z,96.30
2023-03-13T04:12:36.068Z,96.30
2023-03-13T04:13:39.761Z,96.30
2023-03-13T04:14:43.288Z,96.30
2023-03-13T04:15:48.830Z,96.30
2023-03-13T04:16:53.019Z,96.30
2023-03-13T04:17:55.408Z,96.30
2023-03-13T04:18:59.612Z,96.30
2023-03-13T04:20:03.750Z,96.30
2023-03-13T04:21:08.171Z,96.30
2023-03-13T04:22:20.735Z,96.30
2023-03-13T04:23:28.194Z,96.30
2023-03-13T04:24:33.372Z,96.30
2023-03-13T04:25:36.796Z,96.30
2023-03-13T04:26:40.655Z,96.30
2023-03-13T04:27:44.645Z,96.30
2023-03-13T04:28:48.643Z,96.30
2023-03-13T04:29:56.283Z,96.30
2023-03-13T04:31:25.913Z,96.30
2023-03-13T04:32:54.529Z,96.30
2023-03-13T04:34:18.367Z,96.30
2023-03-13T04:35:40.517Z,96.30
2023-03-13T04:36:55.206Z,96.30
2023-03-13T04:37:58.978Z,96.30
2023-03-13T04:39:12.234Z,96.30
2023-03-13T04:40:43.227Z,96.30
2023-03-13T04:42:11.195Z,96.30
2023-03-13T04:43:40.791Z,96.30
2023-03-13T04:45:11.902Z,96.30
2023-03-13T04:46:32.625Z,96.30
2023-03-13T04:48:11.661Z,96.30
2023-03-13T04:49:24.714Z,96.30
2023-03-13T04:50:46.385Z,96.30
2023-03-13T04:52:01.116Z,96.30
2023-03-13T04:53:23.454Z,96.30
2023-03-13T04:54:35.002Z,96.30
2023-03-13T04:56:41.236Z,96.30
2023-03-13T04:58:04.535Z,96.30
2023-03-13T04:59:16.887Z,96.30
2023-03-13T05:00:44.765Z,96.30
2023-03-13T05:01:58.686Z,96.30
2023-03-13T05:03:20.196Z,96.30
2023-03-13T05:04:31.185Z,96.30
2023-03-13T05:05:53.214Z,96.30
2023-03-13T05:07:14.496Z,96.30
2023-03-13T05:08:36.418Z,96.30
2023-03-13T05:10:06.665Z,96.30
2023-03-13T05:11:29.052Z,96.30
2023-03-13T05:12:55.376Z,96.30
2023-03-13T05:14:04.909Z,96.30
2023-03-13T05:15:25.750Z,96.30
2023-03-13T05:16:40.592Z,96.30
2023-03-13T05:18:03.605Z,96.30
2023-03-13T05:19:24.740Z,96.30
2023-03-13T05:20:44.798Z,96.30
2023-03-13T05:21:57.936Z,96.30
2023-03-13T05:23:21.884Z,96.30
2023-03-13T05:24:51.617Z,96.30
2023-03-13T05:25:54.023Z,96.30
2023-03-13T05:27:20.568Z,96.30
2023-03-13T05:28:34.946Z,96.30
2023-03-13T05:29:57.032Z,96.30
2023-03-13T05:31:15.023Z,96.30
2023-03-13T05:32:39.245Z,96.30
2023-03-13T05:34:05.377Z,96.30
2023-03-13T05:35:32.415Z,96.30
2023-03-13T05:36:55.034Z,96.30
2023-03-13T05:38:27.602Z,96.30
2023-03-13T05:39:57.866Z,96.30
2023-03-13T05:41:36.846Z,96.30
2023-03-13T05:42:59.630Z,96.30
2023-03-13T05:44:19.789Z,96.30
2023-03-13T05:45:33.583Z,96.30
2023-03-13T05:46:37.124Z,96.30
2023-03-13T05:47:59.732Z,96.30
2023-03-13T05:49:41.353Z,96.30
2023-03-13T05:50:53.259Z,96.30
2023-03-13T05:51:55.586Z,96.30
2023-03-13T05:53:22.206Z,96.30
2023-03-13T05:54:54.884Z,96.30
2023-03-13T05:56:16.411Z,96.30
2023-03-13T05:57:38.129Z,96.30
2023-03-13T05:58:49.480Z,96.30
2023-03-13T06:00:14.208Z,96.30
2023-03-13T06:01:24.217Z,96.30
2023-03-13T06:02:36.372Z,96.30
2023-03-13T06:03:43.205Z,96.30
2023-03-13T06:04:47.128Z,96.30
2023-03-13T06:05:50.696Z,96.30
2023-03-13T06:07:05.254Z,96.30
2023-03-13T06:08:08.778Z,96.30
2023-03-13T06:09:11.812Z,96.30
2023-03-13T06:10:16.235Z,96.30
2023-03-13T06:11:19.622Z,96.30
2023-03-13T06:12:22.418Z,96.30
2023-03-13T06:13:25.883Z,96.30
2023-03-13T06:14:30.652Z,96.30
2023-03-13T06:15:59.644Z,96.30
2023-03-13T06:17:21.649Z,96.30
2023-03-13T06:18:27.019Z,96.30
2023-03-13T06:19:31.022Z,96.30
2023-03-13T06:20:34.435Z,96.30
2023-03-13T06:21:36.791Z,96.30
2023-03-13T06:22:40.338Z,96.30
2023-03-13T06:23:43.002Z,96.30
2023-03-13T06:24:49.114Z,96.30
2023-03-13T06:25:51.444Z,96.30
2023-03-13T06:26:54.905Z,96.30
2023-03-13T06:27:58.312Z,96.30
2023-03-13T06:29:00.694Z,96.30
2023-03-13T06:30:04.672Z,96.30
2023-03-13T06:31:09.869Z,96.30
2023-03-13T06:32:12.436Z,96.30
2023-03-13T06:33:16.338Z,96.30
2023-03-13T06:34:19.290Z,96.30
2023-03-13T06:35:24.018Z,96.30
2023-03-13T06:36:26.710Z,96.30
2023-03-13T06:37:30.263Z,96.30
2023-03-13T06:38:32.794Z,96.30
2023-03-13T06:39:36.136Z,96.30
2023-03-13T06:40:39.681Z,96.30
2023-03-13T06:41:42.096Z,96.30
2023-03-13T06:42:45.535Z,96.30
2023-03-13T06:43:48.101Z,96.30
2023-03-13T06:44:51.580Z,96.30
2023-03-13T06:45:55.226Z,96.30
2023-03-13T06:46:57.756Z,96.30
2023-03-13T06:48:01.118Z,96.30
2023-03-13T06:49:05.918Z,96.30
2023-03-13T06:50:10.778Z,96.30
2023-03-13T06:51:16.337Z,96.30
2023-03-13T06:52:20.635Z,96.30
2023-03-13T06:53:23.849Z,96.30
2023-03-13T06:54:27.918Z,96.30
2023-03-13T06:55:30.306Z,96.30
2023-03-13T06:56:33.823Z,96.30
2023-03-13T06:57:36.318Z,96.30
2023-03-13T06:58:40.046Z,96.30
2023-03-13T06:59:42.654Z,96.30
2023-03-13T07:00:46.720Z,96.30
2023-03-13T07:01:50.206Z,96.30
2023-03-13T07:02:54.057Z,96.30
2023-03-13T07:03:57.619Z,96.30
2023-03-13T07:05:00.142Z,96.30
2023-03-13T07:06:04.553Z,96.30
2023-03-13T07:07:14.962Z,96.30
2023-03-13T07:08:21.942Z,96.30
2023-03-13T07:09:25.294Z,96.30
2023-03-13T07:10:27.742Z,96.30
2023-03-13T07:11:31.213Z,96.30
2023-03-13T07:12:35.214Z,96.30
2023-03-13T07:13:39.106Z,96.30
2023-03-13T07:14:41.583Z,96.30
2023-03-13T07:15:45.096Z,96.30
2023-03-13T07:16:48.750Z,96.30
2023-03-13T07:17:51.224Z,96.30
2023-03-13T07:18:57.199Z,96.30
2023-03-13T07:20:01.828Z,96.30
2023-03-13T07:21:05.576Z,96.30
2023-03-13T07:22:10.569Z,96.30
2023-03-13T07:23:13.342Z,96.30
2023-03-13T07:24:16.980Z,96.30
2023-03-13T07:25:20.045Z,96.30
2023-03-13T07:26:23.660Z,96.30
2023-03-13T07:27:26.188Z,96.30
2023-03-13T07:28:31.833Z,96.30
2023-03-13T07:29:35.438Z,96.30
2023-03-13T07:30:38.028Z,96.30
2023-03-13T07:31:41.455Z,96.30
2023-03-13T07:32:44.005Z,96.30
2023-03-13T07:33:47.952Z,96.30
2023-03-13T07:34:50.397Z,96.30
2023-03-13T07:35:54.761Z,96.30
2023-03-13T07:36:58.147Z,96.30
2023-03-13T07:38:02.007Z,96.30
2023-03-13T07:39:05.572Z,96.30
2023-03-13T07:40:09.706Z,96.30
2023-03-13T07:41:14.473Z,96.30
2023-03-13T07:42:17.910Z,96.30
2023-03-13T07:43:22.241Z,96.30
2023-03-13T07:44:25.800Z,96.30
2023-03-13T07:45:28.181Z,96.30
2023-03-13T07:46:31.518Z,96.30
2023-03-13T07:47:35.010Z,96.30
2023-03-13T07:48:40.651Z,96.30
2023-03-13T07:49:44.182Z,96.30
2023-03-13T07:50:48.551Z,96.30
2023-03-13T07:51:51.979Z,96.30
2023-03-13T07:52:55.332Z,96.30
2023-03-13T07:54:00.131Z,96.30
2023-03-13T07:55:02.674Z,96.30
2023-03-13T07:56:08.851Z,96.30
2023-03-13T07:57:12.471Z,96.30
2023-03-13T07:58:15.208Z,96.30
2023-03-13T07:59:19.019Z,96.30
2023-03-13T08:00:22.931Z,96.30
2023-03-13T08:01:30.911Z,96.30
2023-03-13T08:02:34.643Z,96.30
2023-03-13T08:03:38.352Z,96.30
2023-03-13T08:04:40.840Z,96.30
2023-03-13T08:05:44.404Z,96.30
2023-03-13T08:06:47.821Z,96.30
2023-03-13T08:07:51.415Z,96.30
2023-03-13T08:08:59.807Z,96.30
2023-03-13T08:10:03.262Z,96.30
2023-03-13T08:11:10.651Z,96.30
2023-03-13T08:12:14.217Z,96.30
2023-03-13T08:13:16.596Z,96.30
2023-03-13T08:14:19.976Z,96.30
2023-03-13T08:15:26.069Z,96.30
2023-03-13T08:16:34.110Z,96.30
2023-03-13T08:17:36.639Z,96.30
2023-03-13T08:18:42.318Z,96.30
2023-03-13T08:19:44.680Z,96.30
2023-03-13T08:20:48.169Z,96.30
2023-03-13T08:21:52.148Z,96.30
2023-03-13T08:22:57.392Z,96.30
2023-03-13T08:24:05.992Z,96.30
2023-03-13T08:25:08.984Z,96.30
2023-03-13T08:26:15.396Z,96.30
2023-03-13T08:27:18.774Z,96.30
2023-03-13T08:28:21.167Z,96.30
2023-03-13T08:29:24.556Z,96.30
2023-03-13T08:30:27.039Z,96.30
2023-03-13T08:31:33.693Z,96.30
2023-03-13T08:32:37.120Z,96.30
2023-03-13T08:33:41.375Z,96.30
2023-03-13T08:34:45.095Z,96.30
2023-03-13T08:35:48.558Z,96.30
2023-03-13T08:36:52.897Z,96.30
2023-03-13T08:37:55.363Z,96.30
2023-03-13T08:39:03.075Z,96.30
2023-03-13T08:40:10.842Z,96.30
2023-03-13T08:41:15.749Z,96.30
2023-03-13T08:42:19.068Z,96.30
2023-03-13T08:43:21.541Z,96.30
2023-03-13T08:44:24.969Z,96.30
2023-03-13T08:45:27.406Z,96.30
2023-03-13T08:46:32.459Z,96.30
2023-03-13T08:47:36.315Z,96.30
2023-03-13T08:48:38.838Z,96.30
2023-03-13T08:49:42.273Z,96.30
2023-03-13T08:50:44.591Z,96.30
2023-03-13T08:51:48.004Z,96.30
2023-03-13T08:52:50.552Z,96.30
2023-03-13T08:53:55.988Z,96.30
2023-03-13T08:55:00.773Z,96.30
2023-03-13T08:56:04.928Z,96.30
2023-03-13T08:57:08.372Z,96.30
2023-03-13T08:58:10.807Z,96.30
2023-03-13T08:59:15.478Z,96.30
2023-03-13T09:01:24.604Z,96.30
2023-03-13T09:02:27.101Z,96.30
2023-03-13T09:03:30.717Z,96.30
2023-03-13T09:04:34.080Z,96.30
2023-03-13T09:05:53.136Z,96.30
2023-03-13T09:06:59.139Z,96.30
2023-03-13T09:08:01.538Z,96.30
2023-03-13T09:09:06.968Z,96.30
2023-03-13T09:10:12.742Z,96.30
2023-03-13T09:11:19.634Z,96.30
2023-03-13T09:12:30.836Z,96.30
2023-03-13T09:13:37.773Z,96.30
2023-03-13T09:14:41.218Z,96.00
2023-03-13T09:15:43.794Z,95.50
2023-03-13T09:16:48.237Z,95.30
2023-03-13T09:17:50.812Z,95.40
2023-03-13T09:18:54.774Z,96.10
2023-03-13T09:20:00.985Z,96.30
2023-03-13T09:21:07.242Z,96.30
2023-03-13T09:22:10.705Z,96.10
2023-03-13T09:23:13.354Z,96.30
2023-03-13T09:24:17.312Z,96.30
2023-03-13T09:25:22.033Z,96.30
2023-03-13T09:26:26.087Z,96.30
2023-03-13T09:27:29.518Z,96.30
2023-03-13T09:28:32.529Z,96.30
2023-03-13T09:29:40.028Z,96.30
2023-03-13T09:30:42.464Z,96.30
2023-03-13T09:31:46.075Z,96.30
2023-03-13T09:32:48.610Z,96.30
2023-03-13T09:33:53.161Z,96.30
2023-03-13T09:34:56.526Z,96.30
2023-03-13T09:35:59.017Z,96.30
2023-03-13T09:37:02.594Z,96.30
2023-03-13T09:38:05.353Z,96.30
2023-03-13T09:39:08.823Z,96.30
2023-03-13T09:40:16.301Z,96.30
2023-03-13T09:41:33.759Z,96.30
2023-03-13T09:42:45.356Z,96.30
2023-03-13T09:43:54.644Z,96.30
2023-03-13T09:45:07.640Z,96.30
2023-03-13T09:46:18.697Z,96.30
2023-03-13T09:47:30.013Z,96.30
2023-03-13T09:48:37.775Z,96.30
2023-03-13T09:49:46.471Z,96.30
2023-03-13T09:51:01.242Z,96.30
2023-03-13T09:52:16.497Z,96.30
2023-03-13T09:53:28.546Z,96.30
2023-03-13T09:54:39.458Z,96.30
2023-03-13T09:55:45.375Z,96.30
2023-03-13T09:56:57.687Z,96.30
2023-03-13T09:58:05.598Z,96.30
2023-03-13T09:59:20.649Z,96.30
2023-03-13T10:00:28.500Z,96.30
2023-03-13T10:01:32.255Z,96.30
2023-03-13T10:02:37.743Z,96.30
2023-03-13T10:03:48.673Z,96.30
2023-03-13T10:05:00.821Z,96.30
2023-03-13T10:06:12.962Z,96.30
2023-03-13T10:07:16.392Z,96.30
2023-03-13T10:08:23.410Z,96.30
2023-03-13T10:09:30.826Z,96.30
2023-03-13T10:10:44.729Z,96.30
2023-03-13T10:11:58.864Z,96.30
2023-03-13T10:13:15.541Z,96.30
2023-03-13T10:14:28.414Z,96.30
2023-03-13T10:15:40.302Z,96.00
2023-03-13T10:16:50.347Z,95.40
2023-03-13T10:17:53.132Z,94.50
2023-03-13T10:18:59.928Z,94.70
2023-03-13T10:20:25.178Z,95.10
2023-03-13T10:21:35.609Z,95.00
2023-03-13T10:22:43.297Z,94.80
2023-03-13T10:23:53.062Z,94.30
2023-03-13T10:25:00.528Z,94.70
2023-03-13T10:26:03.992Z,95.20
2023-03-13T10:27:10.018Z,94.90
2023-03-13T10:28:15.805Z,94.20
2023-03-13T10:29:23.382Z,93.80
2023-03-13T10:30:29.253Z,92.70
2023-03-13T10:31:36.705Z,92.10
2023-03-13T10:32:40.221Z,90.90
2023-03-13T10:34:55.363Z,90.50
2023-03-13T10:36:06.148Z,88.60
2023-03-13T10:37:15.725Z,88.40
2023-03-13T10:38:25.522Z,86.90
2023-03-13T10:39:31.299Z,87.20
2023-03-13T10:40:34.774Z,86.50
2023-03-13T10:41:38.576Z,86.50
2023-03-13T10:42:46.907Z,86.80
2023-03-13T10:43:55.512Z,87.00
2023-03-13T10:45:00.566Z,86.70
2023-03-13T10:46:04.991Z,88.10
2023-03-13T10:47:12.593Z,89.40
2023-03-13T10:48:20.512Z,88.90
2023-03-13T10:49:24.716Z,89.40
2023-03-13T10:50:33.619Z,89.30
2023-03-13T10:51:39.291Z,90.40
2023-03-13T10:52:47.707Z,89.80
2023-03-13T10:53:51.893Z,89.30
2023-03-13T10:55:01.650Z,88.70
2023-03-13T10:56:12.747Z,88.40
2023-03-13T10:57:33.001Z,88.60
2023-03-13T10:58:43.022Z,88.00
2023-03-13T10:59:49.382Z,88.30
2023-03-13T11:00:52.886Z,87.30
2023-03-13T11:02:01.368Z,88.10
2023-03-13T11:03:08.439Z,87.50
2023-03-13T11:04:30.264Z,88.70
2023-03-13T11:05:46.855Z,88.70
2023-03-13T11:06:52.876Z,88.80
2023-03-13T11:07:56.867Z,88.80
2023-03-13T11:09:06.511Z,89.20
2023-03-13T11:10:20.787Z,87.80
2023-03-13T11:11:23.352Z,87.10
2023-03-13T11:12:27.155Z,86.60
2023-03-13T11:13:42.937Z,87.70
2023-03-13T11:14:45.991Z,87.50
2023-03-13T11:15:57.341Z,87.80
2023-03-13T11:17:10.779Z,86.90
2023-03-13T11:18:26.484Z,88.30
2023-03-13T11:19:54.747Z,86.50
2023-03-13T11:21:08.731Z,86.10
2023-03-13T11:22:34.184Z,86.10
2023-03-13T11:23:45.621Z,84.60
2023-03-13T11:24:59.169Z,84.20
2023-03-13T11:26:18.332Z,84.40
2023-03-13T11:27:33.008Z,83.20
2023-03-13T11:28:51.761Z,83.30
2023-03-13T11:30:01.833Z,82.60
2023-03-13T11:31:12.873Z,82.70
2023-03-13T11:32:25.757Z,83.00
2023-03-13T11:33:53.121Z,81.70
2023-03-13T11:35:00.343Z,82.00
2023-03-13T11:36:10.779Z,82.90
2023-03-13T11:37:16.513Z,81.60
2023-03-13T11:38:28.222Z,83.10
2023-03-13T11:39:56.722Z,83.30
2023-03-13T11:41:14.682Z,84.10
2023-03-13T11:42:45.070Z,86.20
2023-03-13T11:44:10.946Z,83.10
2023-03-13T11:45:38.586Z,86.20
2023-03-13T11:46:54.943Z,85.10
2023-03-13T11:48:06.956Z,88.70
2023-03-13T11:49:40.956Z,87.20
2023-03-13T11:50:51.238Z,86.00
2023-03-13T11:52:12.946Z,82.80
2023-03-13T11:53:48.469Z,84.20
2023-03-13T11:55:14.180Z,84.60
2023-03-13T11:56:23.010Z,85.90
2023-03-13T11:57:30.831Z,86.00
2023-03-13T11:58:50.435Z,85.10
2023-03-13T12:00:24.510Z,84.20
2023-03-13T12:01:32.610Z,83.70
2023-03-13T12:02:42.232Z,81.90
2023-03-13T12:03:57.615Z,83.50
2023-03-13T12:05:07.436Z,85.50
2023-03-13T12:06:28.673Z,83.30
2023-03-13T12:07:37.469Z,81.60
2023-03-13T12:08:46.809Z,83.50
2023-03-13T12:09:56.403Z,84.50
2023-03-13T12:11:14.825Z,77.70
2023-03-13T12:12:32.388Z,77.60
2023-03-13T12:13:42.989Z,79.50
2023-03-13T12:14:51.341Z,79.40
2023-03-13T12:16:01.789Z,79.80
2023-03-13T12:17:12.474Z,81.60
2023-03-13T12:18:24.110Z,81.70
2023-03-13T12:19:34.668Z,78.40
2023-03-13T12:20:45.613Z,77.70
2023-03-13T12:21:53.717Z,78.20
2023-03-13T12:23:10.946Z,79.60
2023-03-13T12:24:27.785Z,78.00
2023-03-13T12:25:39.094Z,77.20
2023-03-13T12:26:48.398Z,78.00
2023-03-13T12:27:57.678Z,78.30
2023-03-13T12:29:11.628Z,79.80
2023-03-13T12:30:28.724Z,80.80
2023-03-13T12:31:39.250Z,74.50
2023-03-13T12:32:53.577Z,73.00
2023-03-13T12:34:10.940Z,75.50
2023-03-13T12:35:23.207Z,71.00
2023-03-13T12:36:35.401Z,70.20
2023-03-13T12:37:46.699Z,69.10
2023-03-13T12:38:58.550Z,69.00
2023-03-13T12:40:09.469Z,72.60
2023-03-13T12:41:25.710Z,76.60
2023-03-13T12:42:44.952Z,71.40
2023-03-13T12:44:07.230Z,78.90
2023-03-13T12:45:18.728Z,69.20
2023-03-13T12:46:43.233Z,67.10
2023-03-13T12:48:35.344Z,70.70
2023-03-13T12:50:05.012Z,65.30
2023-03-13T12:51:35.777Z,69.60
2023-03-13T12:53:12.376Z,75.70
2023-03-13T12:54:49.378Z,73.70
2023-03-13T12:56:22.053Z,71.70
2023-03-13T12:58:10.846Z,76.80
2023-03-13T12:59:20.530Z,71.40
2023-03-13T13:00:28.148Z,77.80
2023-03-13T13:01:35.988Z,72.30
2023-03-13T13:02:40.913Z,70.80
2023-03-13T13:03:57.401Z,75.40
2023-03-13T13:05:03.541Z,71.50
2023-03-13T13:06:09.936Z,74.00
2023-03-13T13:07:26.732Z,69.90
2023-03-13T13:08:36.233Z,69.20
2023-03-13T13:10:02.463Z,67.80
2023-03-13T13:11:47.849Z,69.30
2023-03-13T13:13:31.424Z,69.70
2023-03-13T13:16:18.861Z,68.50
2023-03-13T13:17:48.704Z,70.00
2023-03-13T13:18:52.370Z,71.50
2023-03-13T13:19:56.343Z,70.50
2023-03-13T13:21:26.461Z,69.70
2023-03-13T13:22:52.591Z,68.10
2023-03-13T13:24:16.561Z,68.10
2023-03-13T13:25:33.419Z,69.10
2023-03-13T13:26:49.225Z,68.40
2023-03-13T13:27:52.375Z,68.40
2023-03-13T13:28:58.082Z,68.80
2023-03-13T13:30:04.526Z,68.40
2023-03-13T13:31:57.159Z,68.70
2023-03-13T13:33:41.029Z,68.70
2023-03-13T13:35:02.657Z,69.50
2023-03-13T13:36:43.174Z,68.60
2023-03-13T13:37:49.315Z,68.80
2023-03-13T13:38:53.582Z,69.10
2023-03-13T13:40:22.026Z,68.80
2023-03-13T13:41:40.484Z,68.50
2023-03-13T13:42:56.190Z,67.70
2023-03-13T13:44:29.742Z,66.90
2023-03-13T13:45:35.323Z,64.80
2023-03-13T13:46:46.367Z,64.40
2023-03-13T13:47:51.721Z,65.00
2023-03-13T13:49:16.863Z,65.10
2023-03-13T13:50:22.991Z,65.40
2023-03-13T13:51:25.862Z,65.60
2023-03-13T13:52:39.287Z,65.10
2023-03-13T13:53:45.587Z,65.10
2023-03-13T13:54:58.926Z,64.70
2023-03-13T13:56:10.175Z,64.50
2023-03-13T13:57:17.988Z,65.60
2023-03-13T13:58:25.342Z,65.30
2023-03-13T13:59:43.293Z,65.10
2023-03-13T14:00:53.785Z,65.10
2023-03-13T14:02:22.973Z,65.10
2023-03-13T14:03:29.458Z,65.60
2023-03-13T14:04:39.182Z,65.10
2023-03-13T14:05:44.092Z,65.50
2023-03-13T14:06:49.299Z,65.80
2023-03-13T14:08:00.307Z,65.90
2023-03-13T14:09:17.906Z,66.00
2023-03-13T14:10:39.946Z,65.80
2023-03-13T14:11:42.493Z,65.90
2023-03-13T14:12:52.453Z,66.40
2023-03-13T14:14:12.013Z,67.00
2023-03-13T14:15:20.028Z,66.60
2023-03-13T14:16:28.167Z,66.70
2023-03-13T14:17:31.181Z,66.70
2023-03-13T14:18:34.588Z,66.70
2023-03-13T14:19:42.913Z,66.50
2023-03-13T14:21:00.035Z,66.20
2023-03-13T14:22:07.658Z,66.40
2023-03-13T14:23:12.842Z,66.50
2023-03-13T14:24:16.891Z,66.30
2023-03-13T14:25:21.873Z,66.20
2023-03-13T14:26:27.365Z,66.50
2023-03-13T14:27:29.877Z,66.80
2023-03-13T14:28:33.469Z,66.90
2023-03-13T14:29:37.773Z,66.70
2023-03-13T14:30:44.272Z,66.70
2023-03-13T14:31:54.823Z,66.60
2023-03-13T14:32:57.416Z,66.30
2023-03-13T14:34:03.221Z,66.20
2023-03-13T14:35:11.986Z,66.40
2023-03-13T14:36:15.532Z,66.20
2023-03-13T14:37:37.361Z,66.20
2023-03-13T14:38:41.643Z,66.30
2023-03-13T14:39:45.811Z,66.00
2023-03-13T14:40:50.478Z,66.20
2023-03-13T14:41:54.043Z,66.00
2023-03-13T14:42:59.112Z,66.40
2023-03-13T14:44:07.716Z,66.30
2023-03-13T14:45:15.691Z,66.70
2023-03-13T14:46:30.603Z,66.50
2023-03-13T14:47:34.259Z,66.70
2023-03-13T14:48:37.885Z,66.70
2023-03-13T14:49:40.508Z,66.70
2023-03-13T14:50:45.558Z,66.40
2023-03-13T14:51:59.849Z,66.70